CheckWX is a tool to help pilots better visualize weather data.  It is not intended as a substitute for an official pre-flight weather briefing.

22:35:26 UTC

KDLP METAR
West Delta 27A Airport
West Delta, Mississippi, USA
Current

20 mins ago

KDLP 262215Z AUTO 29008KT 10SM FEW035 18/11 A3013 RMK A01
Observed
Mar-26 @ 22:15 UTC
Wind
  • 290° at 8 KTS
Visibility
10 SM
Flight Rules
VFR
Cloud Levels
  • Few at 3,500' AGL
Temperature
18°C / 64°F
Dewpoint
11°C / 52°F
Humidity
64%
Altimeter
30.13" Hg
Pressure
1020.32 hPa
Previous

40 mins ago

KDLP 262155Z AUTO 28007KT 10SM FEW034 18/12 A3013 RMK A01
Observed
Mar-26 @ 21:55 UTC
Wind
  • 280° at 7 KTS
Visibility
10 SM
Flight Rules
VFR
Cloud Levels
  • Few at 3,400' AGL
Temperature
18°C / 64°F
Dewpoint
12°C / 54°F
Humidity
68%
Altimeter
30.13" Hg
Pressure
1020.32 hPa
Previous

60 mins ago

KDLP 262135Z AUTO 25009KT 10SM SCT032 18/11 A3013 RMK A01
Observed
Mar-26 @ 21:35 UTC
Wind
  • 250° at 9 KTS
Visibility
10 SM
Flight Rules
VFR
Cloud Levels
  • Scattered at 3,200' AGL
Temperature
18°C / 64°F
Dewpoint
11°C / 52°F
Humidity
64%
Altimeter
30.13" Hg
Pressure
1020.32 hPa